KAL937 RKSI-LOWW
Flight info
| Callsign | KAL937 |
|---|---|
| Flight time | N/A |
| Altitude | 32000 |
| Route | NOPIK Y697 AGAVO/K0926S0920 A591 IKEKA W4 FZ/K0920S0980 W4 HCH W200 DOVIV W55 PAMRU W34 LADIX B339 ASILA A575 UPREK W28 LAGEB W66 NUKTI/K0904S1040 B215 KABDO W119 GOBOK A343 RULAD/K0896F340 M610 ARBOL Z621 ELAHA N147 OTBOR/N0490F340 A480 TIMGA B476 OGLID/N0485F360 B476 METKA L88 RASAM N199 LUSAL M11 REBLO UM11 CRM UL746 ODERO DCT LUGEB DCT SOKRU DCT DEGET DCT BALUX DCT TORNO DCT NATEX |
| Aircraft | B77W/H-SDE1E2E3FGHIJ2J3J4J5M1RWXY/LB1D1 |
Departure
| Time | 2026-05-05 16:31 |
|---|---|
| Airport | Incheon International Airport (RKSI) |
Arrival
| Time | N/A |
|---|---|
| Airport | Vienna International Airport (LOWW) |
| Time | Latitude | Longitude | Altitude | Speed | Heading |
|---|---|---|---|---|---|
| 2026-05-05 16:10 | 37.46727 | 126.42883 | 38 ft | 0 kts | 51° |
| 2026-05-05 16:20 | 37.46725 | 126.42879 | 37 ft | 3 kts | 52° |
| 2026-05-05 16:21 | 37.46692 | 126.42827 | 37 ft | 4 kts | 44° |
| 2026-05-05 16:22 | 37.46644 | 126.42825 | 35 ft | 4 kts | 323° |
| 2026-05-05 16:22 | 37.46603 | 126.42864 | 36 ft | 1 kts | 324° |
| 2026-05-05 16:23 | 37.46602 | 126.42865 | 37 ft | 0 kts | 324° |
| 2026-05-05 16:24 | 37.46695 | 126.42780 | 37 ft | 10 kts | 324° |
| 2026-05-05 16:25 | 37.46750 | 126.42725 | 37 ft | 10 kts | 318° |
| 2026-05-05 16:25 | 37.46783 | 126.42576 | 37 ft | 10 kts | 241° |
| 2026-05-05 16:25 | 37.46751 | 126.42495 | 37 ft | 10 kts | 256° |
| 2026-05-05 16:26 | 37.46842 | 126.42367 | 37 ft | 10 kts | 323° |
| 2026-05-05 16:26 | 37.46960 | 126.42260 | 38 ft | 10 kts | 324° |
| 2026-05-05 16:27 | 37.47019 | 126.42208 | 38 ft | 10 kts | 324° |
| 2026-05-05 16:27 | 37.47082 | 126.42151 | 38 ft | 12 kts | 324° |
| 2026-05-05 16:27 | 37.47151 | 126.42090 | 38 ft | 12 kts | 325° |
| 2026-05-05 16:27 | 37.47221 | 126.42029 | 38 ft | 12 kts | 325° |
| 2026-05-05 16:28 | 37.47290 | 126.41969 | 38 ft | 12 kts | 325° |
| 2026-05-05 16:28 | 37.47359 | 126.41908 | 38 ft | 12 kts | 325° |
| 2026-05-05 16:28 | 37.47399 | 126.41823 | 38 ft | 12 kts | 264° |
| 2026-05-05 16:28 | 37.47373 | 126.41761 | 38 ft | 12 kts | 236° |
| 2026-05-05 16:29 | 37.47325 | 126.41673 | 38 ft | 12 kts | 234° |
| 2026-05-05 16:29 | 37.47264 | 126.41605 | 38 ft | 12 kts | 191° |
| 2026-05-05 16:29 | 37.47214 | 126.41619 | 38 ft | 6 kts | 148° |
| 2026-05-05 16:29 | 37.47199 | 126.41633 | 38 ft | 0 kts | 144° |
| 2026-05-05 16:30 | 37.47145 | 126.41682 | 38 ft | 31 kts | 144° |
| 2026-05-05 16:30 | 37.46772 | 126.42013 | 38 ft | 99 kts | 144° |
| 2026-05-05 16:30 | 37.46038 | 126.42666 | 38 ft | 157 kts | 145° |
| 2026-05-05 16:30 | 37.45019 | 126.43588 | 46 ft | 199 kts | 143° |
| 2026-05-05 16:31 | 37.43870 | 126.44574 | 442 ft | 205 kts | 149° |
| 2026-05-05 16:31 | 37.42596 | 126.45454 | 934 ft | 212 kts | 153° |
| 2026-05-05 16:31 | 37.41345 | 126.46354 | 1637 ft | 208 kts | 153° |
| 2026-05-05 16:31 | 37.40062 | 126.47307 | 1900 ft | 224 kts | 153° |
| 2026-05-05 16:32 | 37.38677 | 126.48334 | 2124 ft | 236 kts | 155° |
| 2026-05-05 16:32 | 37.37112 | 126.49057 | 2396 ft | 244 kts | 168° |
| 2026-05-05 16:32 | 37.35429 | 126.49582 | 2786 ft | 253 kts | 169° |
| 2026-05-05 16:32 | 37.33704 | 126.50125 | 3274 ft | 258 kts | 168° |
| 2026-05-05 16:33 | 37.31953 | 126.50698 | 3796 ft | 262 kts | 167° |
| 2026-05-05 16:33 | 37.30180 | 126.51289 | 4320 ft | 265 kts | 167° |
| 2026-05-05 16:33 | 37.28366 | 126.51525 | 4732 ft | 264 kts | 193° |
| 2026-05-05 16:33 | 37.26725 | 126.50573 | 5150 ft | 262 kts | 221° |
| 2026-05-05 16:34 | 37.25378 | 126.49025 | 5572 ft | 265 kts | 224° |
| 2026-05-05 16:34 | 37.24047 | 126.47457 | 6096 ft | 267 kts | 224° |
| 2026-05-05 16:34 | 37.22696 | 126.45861 | 6649 ft | 267 kts | 224° |
| 2026-05-05 16:34 | 37.21333 | 126.44250 | 7127 ft | 270 kts | 224° |
| 2026-05-05 16:35 | 37.19957 | 126.42625 | 7604 ft | 273 kts | 224° |
| 2026-05-05 16:35 | 37.18566 | 126.40986 | 8084 ft | 275 kts | 224° |
| 2026-05-05 16:35 | 37.17165 | 126.39337 | 8582 ft | 277 kts | 224° |
| 2026-05-05 16:35 | 37.15748 | 126.37673 | 9060 ft | 280 kts | 224° |
| 2026-05-05 16:36 | 37.14317 | 126.35997 | 9538 ft | 282 kts | 224° |
| 2026-05-05 16:36 | 37.12873 | 126.34306 | 9977 ft | 285 kts | 224° |
| 2026-05-05 16:36 | 37.11433 | 126.32567 | 9953 ft | 286 kts | 232° |
| 2026-05-05 16:36 | 37.10539 | 126.30392 | 10074 ft | 283 kts | 258° |
| 2026-05-05 16:37 | 37.10353 | 126.27904 | 10261 ft | 292 kts | 270° |
| 2026-05-05 16:37 | 37.10347 | 126.25298 | 10399 ft | 308 kts | 270° |
| 2026-05-05 16:37 | 37.10343 | 126.22574 | 10537 ft | 325 kts | 270° |
| 2026-05-05 16:37 | 37.10333 | 126.19662 | 10673 ft | 343 kts | 269° |
| 2026-05-05 16:38 | 37.10313 | 126.16595 | 10860 ft | 360 kts | 269° |
| 2026-05-05 16:38 | 37.10285 | 126.13410 | 11275 ft | 369 kts | 269° |
| 2026-05-05 16:38 | 37.10316 | 126.10178 | 11741 ft | 374 kts | 276° |
| 2026-05-05 16:38 | 37.11040 | 126.07043 | 12225 ft | 377 kts | 294° |
| 2026-05-05 16:39 | 37.12161 | 126.04032 | 12745 ft | 385 kts | 294° |
| 2026-05-05 16:39 | 37.13264 | 126.00965 | 13484 ft | 387 kts | 293° |
| 2026-05-05 16:39 | 37.14355 | 125.97860 | 14147 ft | 392 kts | 292° |
| 2026-05-05 16:39 | 37.15446 | 125.94710 | 14790 ft | 395 kts | 292° |
| 2026-05-05 16:40 | 37.16540 | 125.91532 | 15462 ft | 398 kts | 292° |
| 2026-05-05 16:40 | 37.17622 | 125.88379 | 16120 ft | 401 kts | 293° |
| 2026-05-05 16:40 | 37.18730 | 125.85148 | 16712 ft | 405 kts | 293° |
| 2026-05-05 16:40 | 37.19848 | 125.81881 | 17339 ft | 409 kts | 293° |
| 2026-05-05 16:41 | 37.20976 | 125.78587 | 17971 ft | 412 kts | 293° |
| 2026-05-05 16:41 | 37.22110 | 125.75268 | 18587 ft | 415 kts | 293° |
| 2026-05-05 16:41 | 37.23249 | 125.71931 | 19149 ft | 417 kts | 293° |
| 2026-05-05 16:41 | 37.24394 | 125.68572 | 19736 ft | 419 kts | 293° |
| 2026-05-05 16:42 | 37.25545 | 125.65194 | 20253 ft | 423 kts | 293° |
| 2026-05-05 16:42 | 37.26707 | 125.61775 | 20774 ft | 426 kts | 293° |
| 2026-05-05 16:42 | 37.27876 | 125.58336 | 21319 ft | 429 kts | 293° |
| 2026-05-05 16:42 | 37.29049 | 125.54880 | 21867 ft | 432 kts | 293° |
| 2026-05-05 16:43 | 37.30228 | 125.51402 | 22417 ft | 434 kts | 293° |
| 2026-05-05 16:43 | 37.31414 | 125.47897 | 22877 ft | 438 kts | 293° |
| 2026-05-05 16:43 | 37.32596 | 125.44402 | 23367 ft | 441 kts | 293° |
| 2026-05-05 16:43 | 37.33793 | 125.40858 | 23895 ft | 442 kts | 293° |
| 2026-05-05 16:44 | 37.34997 | 125.37287 | 24280 ft | 445 kts | 293° |
| 2026-05-05 16:44 | 37.36207 | 125.33695 | 24791 ft | 445 kts | 293° |
| 2026-05-05 16:44 | 37.37418 | 125.30100 | 25141 ft | 449 kts | 293° |
| 2026-05-05 16:44 | 37.38640 | 125.26465 | 25538 ft | 451 kts | 293° |
| 2026-05-05 16:45 | 37.39663 | 125.22752 | 25875 ft | 453 kts | 282° |
| 2026-05-05 16:45 | 37.39856 | 125.18790 | 26120 ft | 456 kts | 268° |
| 2026-05-05 16:45 | 37.39692 | 125.14787 | 26408 ft | 460 kts | 268° |
| 2026-05-05 16:45 | 37.39546 | 125.10778 | 26889 ft | 459 kts | 269° |
| 2026-05-05 16:46 | 37.39432 | 125.06755 | 27246 ft | 462 kts | 269° |
| 2026-05-05 16:46 | 37.39345 | 125.02703 | 27555 ft | 465 kts | 269° |
| 2026-05-05 16:46 | 37.39271 | 124.98636 | 27959 ft | 466 kts | 269° |
| 2026-05-05 16:46 | 37.39201 | 124.94552 | 28319 ft | 467 kts | 269° |
| 2026-05-05 16:47 | 37.39130 | 124.90453 | 28603 ft | 470 kts | 269° |
| 2026-05-05 16:47 | 37.39054 | 124.86337 | 28914 ft | 472 kts | 269° |
| 2026-05-05 16:47 | 37.38975 | 124.82255 | 29230 ft | 474 kts | 269° |
| 2026-05-05 16:47 | 37.38892 | 124.78114 | 29532 ft | 475 kts | 269° |
| 2026-05-05 16:48 | 37.38806 | 124.73951 | 29767 ft | 477 kts | 269° |
| 2026-05-05 16:48 | 37.38718 | 124.69763 | 29955 ft | 481 kts | 269° |
| 2026-05-05 16:48 | 37.38537 | 124.61294 | 30015 ft | 487 kts | 269° |
| 2026-05-05 16:49 | 37.38350 | 124.52728 | 30030 ft | 491 kts | 269° |
| 2026-05-05 16:49 | 37.37781 | 124.44257 | 30019 ft | 492 kts | 257° |
| 2026-05-05 16:50 | 37.35394 | 124.36192 | 30012 ft | 496 kts | 242° |
| 2026-05-05 16:50 | 37.31669 | 124.28878 | 30013 ft | 497 kts | 238° |
| 2026-05-05 16:51 | 37.27891 | 124.21590 | 30007 ft | 497 kts | 239° |
| 2026-05-05 16:51 | 37.24184 | 124.14262 | 29999 ft | 496 kts | 239° |
| 2026-05-05 16:52 | 37.20416 | 124.07007 | 30013 ft | 496 kts | 238° |
| 2026-05-05 16:52 | 37.18497 | 124.03399 | 30120 ft | 498 kts | 238° |
| 2026-05-05 16:52 | 37.16580 | 123.99779 | 30270 ft | 499 kts | 238° |
| 2026-05-05 16:53 | 37.14674 | 123.96132 | 30431 ft | 500 kts | 238° |
| 2026-05-05 16:53 | 37.12785 | 123.92473 | 30652 ft | 499 kts | 238° |
| 2026-05-05 16:53 | 37.10930 | 123.88867 | 30874 ft | 498 kts | 238° |
| 2026-05-05 16:53 | 37.09058 | 123.85229 | 31094 ft | 497 kts | 238° |
| 2026-05-05 16:54 | 37.07188 | 123.81602 | 31322 ft | 496 kts | 238° |
| 2026-05-05 16:54 | 37.05314 | 123.77981 | 31525 ft | 495 kts | 238° |
| 2026-05-05 16:54 | 37.03443 | 123.74373 | 31777 ft | 493 kts | 238° |
| 2026-05-05 16:54 | 37.01579 | 123.70783 | 31924 ft | 492 kts | 238° |
| 2026-05-05 16:55 | 36.99709 | 123.67191 | 31671 ft | 493 kts | 240° |
| 2026-05-05 16:55 | 36.97842 | 123.63604 | 31834 ft | 492 kts | 240° |
| 2026-05-05 16:55 | 36.94089 | 123.56397 | 31955 ft | 496 kts | 240° |
| 2026-05-05 16:56 | 36.90299 | 123.49139 | 31989 ft | 501 kts | 240° |
| 2026-05-05 16:56 | 36.86462 | 123.41806 | 31993 ft | 505 kts | 241° |
| 2026-05-05 16:57 | 36.84898 | 123.38002 | 31968 ft | 496 kts | 256° |
| 2026-05-05 16:57 | 36.84243 | 123.33832 | 31994 ft | 488 kts | 271° |
| 2026-05-05 16:57 | 36.84401 | 123.29625 | 31977 ft | 483 kts | 284° |
| 2026-05-05 16:57 | 36.85273 | 123.25612 | 31994 ft | 478 kts | 290° |
| 2026-05-05 16:58 | 36.87318 | 123.17668 | 31982 ft | 482 kts | 290° |
| 2026-05-05 16:58 | 36.89322 | 123.09650 | 31977 ft | 485 kts | 290° |
| 2026-05-05 16:59 | 36.91264 | 123.01621 | 31973 ft | 485 kts | 290° |
| 2026-05-05 16:59 | 36.93196 | 122.93534 | 31966 ft | 485 kts | 290° |
| 2026-05-05 17:00 | 36.95114 | 122.85481 | 31962 ft | 482 kts | 290° |
| 2026-05-05 17:00 | 36.97023 | 122.77451 | 31961 ft | 480 kts | 290° |
| 2026-05-05 17:01 | 36.98917 | 122.69466 | 31966 ft | 478 kts | 289° |
| 2026-05-05 17:01 | 37.00789 | 122.61546 | 31962 ft | 477 kts | 289° |
| 2026-05-05 17:02 | 37.02665 | 122.53583 | 31964 ft | 477 kts | 289° |
| 2026-05-05 17:02 | 37.04537 | 122.45610 | 31959 ft | 477 kts | 289° |
| 2026-05-05 17:03 | 37.06478 | 122.37676 | 31953 ft | 474 kts | 295° |
| 2026-05-05 17:03 | 37.08008 | 122.34051 | 31959 ft | 470 kts | 306° |
| 2026-05-05 17:03 | 37.09986 | 122.30792 | 31975 ft | 469 kts | 313° |
| 2026-05-05 17:04 | 37.14885 | 122.25453 | 31960 ft | 466 kts | 319° |
| 2026-05-05 17:04 | 37.18981 | 122.19142 | 31962 ft | 471 kts | 301° |
| 2026-05-05 17:05 | 37.21410 | 122.11522 | 31974 ft | 476 kts | 290° |
| 2026-05-05 17:05 | 37.23387 | 122.03558 | 31957 ft | 478 kts | 290° |
| 2026-05-05 17:06 | 37.25401 | 121.95571 | 31960 ft | 480 kts | 290° |
| 2026-05-05 17:06 | 37.27451 | 121.87590 | 31938 ft | 480 kts | 290° |
| 2026-05-05 17:07 | 37.29509 | 121.79609 | 31929 ft | 480 kts | 290° |
| 2026-05-05 17:07 | 37.31543 | 121.71694 | 31926 ft | 478 kts | 290° |
| 2026-05-05 17:08 | 37.33577 | 121.63739 | 31919 ft | 476 kts | 289° |
| 2026-05-05 17:08 | 37.35595 | 121.55826 | 31925 ft | 475 kts | 289° |
| 2026-05-05 17:09 | 37.37602 | 121.47928 | 31928 ft | 473 kts | 289° |
| 2026-05-05 17:09 | 37.39600 | 121.40043 | 31906 ft | 472 kts | 289° |
| 2026-05-05 17:10 | 37.41575 | 121.32220 | 31914 ft | 472 kts | 289° |
| 2026-05-05 17:10 | 37.43556 | 121.24357 | 31906 ft | 472 kts | 289° |
| 2026-05-05 17:11 | 37.45580 | 121.16509 | 31908 ft | 471 kts | 292° |
| 2026-05-05 17:11 | 37.48004 | 121.08864 | 31909 ft | 470 kts | 293° |
| 2026-05-05 17:12 | 37.50466 | 121.01231 | 31904 ft | 470 kts | 293° |
| 2026-05-05 17:12 | 37.52904 | 120.93573 | 32106 ft | 474 kts | 292° |
| 2026-05-05 17:13 | 37.54129 | 120.89697 | 31994 ft | 479 kts | 292° |
| 2026-05-05 17:13 | 37.55366 | 120.85775 | 31949 ft | 482 kts | 292° |
| 2026-05-05 17:13 | 37.57856 | 120.77869 | 31894 ft | 486 kts | 292° |
| 2026-05-05 17:14 | 37.60399 | 120.69957 | 31888 ft | 487 kts | 294° |
| 2026-05-05 17:14 | 37.63024 | 120.62055 | 31875 ft | 487 kts | 293° |
| 2026-05-05 17:15 | 37.65669 | 120.54185 | 31878 ft | 486 kts | 296° |